sensor_id;sensor_type;location;lat;lon;timestamp;pressure;altitude;pressure_sealevel;temperature;humidity
4814;BME280;15375;48.540;9.268;2023-04-25T00:01:21;96743.38;;;7.29;100.00
4814;BME280;15375;48.540;9.268;2023-04-25T00:03:49;96699.44;;;7.11;100.00
4814;BME280;15375;48.540;9.268;2023-04-25T00:06:15;96704.75;;;7.18;100.00
4814;BME280;15375;48.540;9.268;2023-04-25T00:08:40;96688.00;;;6.99;100.00
4814;BME280;15375;48.540;9.268;2023-04-25T00:11:06;96724.78;;;7.27;100.00
4814;BME280;15375;48.540;9.268;2023-04-25T00:13:31;96746.44;;;7.31;100.00
4814;BME280;15375;48.540;9.268;2023-04-25T00:15:57;96711.94;;;7.04;100.00
4814;BME280;15375;48.540;9.268;2023-04-25T00:18:23;96722.69;;;7.12;100.00
4814;BME280;15375;48.540;9.268;2023-04-25T00:20:48;96744.94;;;7.26;100.00
4814;BME280;15375;48.540;9.268;2023-04-25T00:23:17;96745.06;;;7.19;100.00
4814;BME280;15375;48.540;9.268;2023-04-25T00:25:48;96722.88;;;6.97;100.00
4814;BME280;15375;48.540;9.268;2023-04-25T00:28:14;96748.47;;;7.23;100.00
4814;BME280;15375;48.540;9.268;2023-04-25T00:30:40;96737.22;;;7.25;100.00
4814;BME280;15375;48.540;9.268;2023-04-25T00:33:06;96733.41;;;7.22;100.00
4814;BME280;15375;48.540;9.268;2023-04-25T00:35:31;96729.50;;;7.23;100.00
4814;BME280;15375;48.540;9.268;2023-04-25T00:37:57;96659.16;;;6.86;100.00
4814;BME280;15375;48.540;9.268;2023-04-25T00:40:22;96736.19;;;7.42;100.00
4814;BME280;15375;48.540;9.268;2023-04-25T00:42:49;96704.03;;;7.17;100.00
4814;BME280;15375;48.540;9.268;2023-04-25T00:45:17;96720.84;;;7.32;100.00
4814;BME280;15375;48.540;9.268;2023-04-25T00:47:43;96715.31;;;7.39;100.00
4814;BME280;15375;48.540;9.268;2023-04-25T00:50:09;96732.84;;;7.57;100.00
4814;BME280;15375;48.540;9.268;2023-04-25T00:52:34;96719.00;;;7.52;100.00
4814;BME280;15375;48.540;9.268;2023-04-25T00:55:00;96725.84;;;7.60;100.00
4814;BME280;15375;48.540;9.268;2023-04-25T00:57:26;96729.72;;;7.59;100.00
4814;BME280;15375;48.540;9.268;2023-04-25T00:59:52;96706.66;;;7.47;100.00
4814;BME280;15375;48.540;9.268;2023-04-25T01:02:19;96720.41;;;7.60;100.00
4814;BME280;15375;48.540;9.268;2023-04-25T01:04:45;96717.75;;;7.56;100.00
4814;BME280;15375;48.540;9.268;2023-04-25T01:07:11;96656.53;;;7.05;100.00
4814;BME280;15375;48.540;9.268;2023-04-25T01:09:36;96696.81;;;7.30;100.00
4814;BME280;15375;48.540;9.268;2023-04-25T01:12:02;96715.06;;;7.53;100.00
4814;BME280;15375;48.540;9.268;2023-04-25T01:14:28;96718.53;;;7.57;100.00
4814;BME280;15375;48.540;9.268;2023-04-25T01:16:53;96715.00;;;7.60;100.00
4814;BME280;15375;48.540;9.268;2023-04-25T01:19:19;96692.19;;;7.54;100.00
4814;BME280;15375;48.540;9.268;2023-04-25T01:21:45;96681.31;;;7.57;100.00
4814;BME280;15375;48.540;9.268;2023-04-25T01:24:11;96682.78;;;7.62;100.00
4814;BME280;15375;48.540;9.268;2023-04-25T01:26:37;96672.75;;;7.59;100.00
4814;BME280;15375;48.540;9.268;2023-04-25T01:29:07;96689.97;;;7.72;100.00
4814;BME280;15375;48.540;9.268;2023-04-25T01:31:34;96689.25;;;7.68;100.00
4814;BME280;15375;48.540;9.268;2023-04-25T01:34:00;96675.09;;;7.57;100.00
4814;BME280;15375;48.540;9.268;2023-04-25T01:36:25;96666.13;;;7.60;100.00
4814;BME280;15375;48.540;9.268;2023-04-25T01:38:52;96693.31;;;7.80;100.00
4814;BME280;15375;48.540;9.268;2023-04-25T01:41:17;96677.56;;;7.71;100.00
4814;BME280;15375;48.540;9.268;2023-04-25T01:43:43;96697.69;;;7.73;100.00
4814;BME280;15375;48.540;9.268;2023-04-25T01:46:10;96664.28;;;7.53;100.00
4814;BME280;15375;48.540;9.268;2023-04-25T01:48:36;96684.72;;;7.61;100.00
4814;BME280;15375;48.540;9.268;2023-04-25T01:51:01;96652.78;;;7.46;100.00
4814;BME280;15375;48.540;9.268;2023-04-25T01:53:27;96680.41;;;7.64;100.00
4814;BME280;15375;48.540;9.268;2023-04-25T01:55:52;96681.47;;;7.70;100.00
4814;BME280;15375;48.540;9.268;2023-04-25T01:58:18;96675.75;;;7.64;100.00
4814;BME280;15375;48.540;9.268;2023-04-25T02:00:43;96687.59;;;7.74;100.00
4814;BME280;15375;48.540;9.268;2023-04-25T02:03:08;96682.44;;;7.60;100.00
4814;BME280;15375;48.540;9.268;2023-04-25T02:05:38;96696.22;;;7.69;100.00
4814;BME280;15375;48.540;9.268;2023-04-25T02:08:07;96686.31;;;7.59;100.00
4814;BME280;15375;48.540;9.268;2023-04-25T02:10:34;96684.75;;;7.58;100.00
4814;BME280;15375;48.540;9.268;2023-04-25T02:13:00;96674.03;;;7.51;100.00
4814;BME280;15375;48.540;9.268;2023-04-25T02:15:26;96689.38;;;7.61;100.00
4814;BME280;15375;48.540;9.268;2023-04-25T02:17:51;96683.13;;;7.64;100.00
4814;BME280;15375;48.540;9.268;2023-04-25T02:20:23;96691.97;;;7.68;100.00
4814;BME280;15375;48.540;9.268;2023-04-25T02:22:50;96700.00;;;7.75;100.00
4814;BME280;15375;48.540;9.268;2023-04-25T02:25:17;96682.34;;;7.63;100.00
4814;BME280;15375;48.540;9.268;2023-04-25T02:27:42;96704.81;;;7.64;100.00
4814;BME280;15375;48.540;9.268;2023-04-25T02:30:08;96704.59;;;7.55;100.00
4814;BME280;15375;48.540;9.268;2023-04-25T02:32:34;96707.06;;;7.46;100.00
4814;BME280;15375;48.540;9.268;2023-04-25T02:35:01;96659.50;;;7.15;100.00
4814;BME280;15375;48.540;9.268;2023-04-25T02:37:33;96669.47;;;7.21;100.00
4814;BME280;15375;48.540;9.268;2023-04-25T02:40:00;96688.53;;;7.41;100.00
4814;BME280;15375;48.540;9.268;2023-04-25T02:42:26;96662.47;;;7.24;100.00
4814;BME280;15375;48.540;9.268;2023-04-25T02:44:52;96660.88;;;7.26;100.00
4814;BME280;15375;48.540;9.268;2023-04-25T02:47:17;96682.81;;;7.35;100.00
4814;BME280;15375;48.540;9.268;2023-04-25T02:49:42;96661.28;;;7.25;100.00
4814;BME280;15375;48.540;9.268;2023-04-25T02:52:08;96675.44;;;7.36;100.00
4814;BME280;15375;48.540;9.268;2023-04-25T02:54:33;96682.09;;;7.31;100.00
4814;BME280;15375;48.540;9.268;2023-04-25T02:56:59;96682.06;;;7.35;100.00
4814;BME280;15375;48.540;9.268;2023-04-25T02:59:26;96654.47;;;7.13;100.00
4814;BME280;15375;48.540;9.268;2023-04-25T03:01:51;96678.38;;;7.22;100.00
4814;BME280;15375;48.540;9.268;2023-04-25T03:04:16;96660.69;;;7.14;100.00
4814;BME280;15375;48.540;9.268;2023-04-25T03:06:43;96669.03;;;7.23;100.00
4814;BME280;15375;48.540;9.268;2023-04-25T03:09:09;96628.00;;;6.97;100.00
4814;BME280;15375;48.540;9.268;2023-04-25T03:11:34;96632.59;;;7.00;100.00
4814;BME280;15375;48.540;9.268;2023-04-25T03:14:00;96658.66;;;7.18;100.00
4814;BME280;15375;48.540;9.268;2023-04-25T03:16:25;96656.34;;;7.20;100.00
4814;BME280;15375;48.540;9.268;2023-04-25T03:18:51;96627.91;;;7.04;100.00
4814;BME280;15375;48.540;9.268;2023-04-25T03:21:16;96639.88;;;7.07;100.00
4814;BME280;15375;48.540;9.268;2023-04-25T03:23:42;96640.72;;;7.00;100.00
4814;BME280;15375;48.540;9.268;2023-04-25T03:26:07;96651.56;;;7.00;100.00
4814;BME280;15375;48.540;9.268;2023-04-25T03:28:32;96671.53;;;7.14;100.00
4814;BME280;15375;48.540;9.268;2023-04-25T03:30:58;96663.84;;;7.08;100.00
4814;BME280;15375;48.540;9.268;2023-04-25T03:33:23;96663.75;;;7.16;100.00
4814;BME280;15375;48.540;9.268;2023-04-25T03:35:48;96649.88;;;7.10;100.00
4814;BME280;15375;48.540;9.268;2023-04-25T03:38:15;96659.09;;;7.16;100.00
4814;BME280;15375;48.540;9.268;2023-04-25T03:40:40;96653.00;;;7.08;100.00
4814;BME280;15375;48.540;9.268;2023-04-25T03:43:06;96621.16;;;6.89;100.00
4814;BME280;15375;48.540;9.268;2023-04-25T03:45:31;96650.75;;;7.03;100.00
4814;BME280;15375;48.540;9.268;2023-04-25T03:47:57;96642.19;;;7.05;100.00
4814;BME280;15375;48.540;9.268;2023-04-25T03:50:22;96639.22;;;6.99;100.00
4814;BME280;15375;48.540;9.268;2023-04-25T03:52:47;96658.44;;;7.08;100.00
4814;BME280;15375;48.540;9.268;2023-04-25T03:55:13;96657.31;;;7.06;100.00
4814;BME280;15375;48.540;9.268;2023-04-25T03:57:38;96654.28;;;7.00;100.00
4814;BME280;15375;48.540;9.268;2023-04-25T04:00:04;96651.72;;;6.90;100.00
4814;BME280;15375;48.540;9.268;2023-04-25T04:02:29;96654.75;;;6.95;100.00
4814;BME280;15375;48.540;9.268;2023-04-25T04:04:55;96648.56;;;6.95;100.00
4814;BME280;15375;48.540;9.268;2023-04-25T04:07:21;96655.06;;;7.01;100.00
4814;BME280;15375;48.540;9.268;2023-04-25T04:09:47;96651.56;;;7.00;100.00
4814;BME280;15375;48.540;9.268;2023-04-25T04:12:12;96656.28;;;6.96;100.00
4814;BME280;15375;48.540;9.268;2023-04-25T04:14:37;96617.97;;;6.68;100.00
4814;BME280;15375;48.540;9.268;2023-04-25T04:17:03;96615.06;;;6.55;100.00
4814;BME280;15375;48.540;9.268;2023-04-25T04:19:28;96660.28;;;6.88;100.00
4814;BME280;15375;48.540;9.268;2023-04-25T04:21:53;96641.06;;;6.79;100.00
4814;BME280;15375;48.540;9.268;2023-04-25T04:24:19;96634.88;;;6.79;100.00
4814;BME280;15375;48.540;9.268;2023-04-25T04:26:44;96641.66;;;6.90;100.00
4814;BME280;15375;48.540;9.268;2023-04-25T04:29:10;96620.22;;;6.73;100.00
4814;BME280;15375;48.540;9.268;2023-04-25T04:31:36;96660.94;;;6.96;100.00
4814;BME280;15375;48.540;9.268;2023-04-25T04:34:02;96633.75;;;6.76;100.00
4814;BME280;15375;48.540;9.268;2023-04-25T04:36:28;96651.94;;;6.76;100.00
4814;BME280;15375;48.540;9.268;2023-04-25T04:38:54;96662.34;;;6.77;100.00
4814;BME280;15375;48.540;9.268;2023-04-25T04:41:21;96631.13;;;6.69;100.00
4814;BME280;15375;48.540;9.268;2023-04-25T04:43:47;96639.41;;;6.85;100.00
4814;BME280;15375;48.540;9.268;2023-04-25T04:46:13;96660.72;;;7.10;100.00
4814;BME280;15375;48.540;9.268;2023-04-25T04:48:38;96643.78;;;7.02;100.00
4814;BME280;15375;48.540;9.268;2023-04-25T04:51:05;96654.84;;;7.15;100.00
4814;BME280;15375;48.540;9.268;2023-04-25T04:53:31;96638.31;;;7.06;100.00
4814;BME280;15375;48.540;9.268;2023-04-25T04:55:56;96653.50;;;7.27;100.00
4814;BME280;15375;48.540;9.268;2023-04-25T04:58:22;96640.06;;;7.20;100.00
4814;BME280;15375;48.540;9.268;2023-04-25T05:00:48;96672.50;;;7.50;100.00
4814;BME280;15375;48.540;9.268;2023-04-25T05:03:13;96665.19;;;7.47;100.00
4814;BME280;15375;48.540;9.268;2023-04-25T05:05:38;96652.09;;;7.42;100.00
4814;BME280;15375;48.540;9.268;2023-04-25T05:08:05;96685.34;;;7.69;100.00
4814;BME280;15375;48.540;9.268;2023-04-25T05:10:31;96655.72;;;7.78;100.00
4814;BME280;15375;48.540;9.268;2023-04-25T05:12:56;96677.22;;;8.12;100.00
4814;BME280;15375;48.540;9.268;2023-04-25T05:15:21;96648.59;;;7.88;100.00
4814;BME280;15375;48.540;9.268;2023-04-25T05:17:47;96665.13;;;7.93;100.00
4814;BME280;15375;48.540;9.268;2023-04-25T05:20:12;96671.00;;;7.92;100.00
4814;BME280;15375;48.540;9.268;2023-04-25T05:22:39;96667.47;;;7.71;100.00
4814;BME280;15375;48.540;9.268;2023-04-25T05:25:07;96690.63;;;7.80;100.00
4814;BME280;15375;48.540;9.268;2023-04-25T05:27:32;96679.50;;;7.70;100.00
4814;BME280;15375;48.540;9.268;2023-04-25T05:29:58;96678.94;;;7.59;100.00
4814;BME280;15375;48.540;9.268;2023-04-25T05:32:23;96665.31;;;7.40;100.00
4814;BME280;15375;48.540;9.268;2023-04-25T05:34:50;96683.38;;;7.50;100.00
4814;BME280;15375;48.540;9.268;2023-04-25T05:37:15;96700.81;;;7.49;100.00
4814;BME280;15375;48.540;9.268;2023-04-25T05:39:41;96689.78;;;7.36;100.00
4814;BME280;15375;48.540;9.268;2023-04-25T05:42:06;96689.41;;;7.34;100.00
4814;BME280;15375;48.540;9.268;2023-04-25T05:44:31;96646.00;;;7.11;100.00
4814;BME280;15375;48.540;9.268;2023-04-25T05:46:57;96674.19;;;7.40;100.00
4814;BME280;15375;48.540;9.268;2023-04-25T05:49:22;96690.97;;;7.58;100.00
4814;BME280;15375;48.540;9.268;2023-04-25T05:51:47;96673.91;;;7.58;100.00
4814;BME280;15375;48.540;9.268;2023-04-25T05:54:13;96647.63;;;7.55;100.00
4814;BME280;15375;48.540;9.268;2023-04-25T05:56:38;96662.00;;;7.75;100.00
4814;BME280;15375;48.540;9.268;2023-04-25T05:59:04;96638.59;;;7.81;100.00
4814;BME280;15375;48.540;9.268;2023-04-25T06:01:29;96684.34;;;8.25;100.00
4814;BME280;15375;48.540;9.268;2023-04-25T06:03:54;96668.28;;;8.34;100.00
4814;BME280;15375;48.540;9.268;2023-04-25T06:06:20;96639.66;;;8.30;100.00
4814;BME280;15375;48.540;9.268;2023-04-25T06:08:45;96682.09;;;8.79;100.00
4814;BME280;15375;48.540;9.268;2023-04-25T06:11:11;96594.69;;;8.45;100.00
4814;BME280;15375;48.540;9.268;2023-04-25T06:13:36;96670.69;;;9.20;100.00
4814;BME280;15375;48.540;9.268;2023-04-25T06:16:02;96657.59;;;9.47;100.00
4814;BME280;15375;48.540;9.268;2023-04-25T06:18:27;96661.75;;;9.68;100.00
4814;BME280;15375;48.540;9.268;2023-04-25T06:20:52;96645.88;;;9.50;100.00
4814;BME280;15375;48.540;9.268;2023-04-25T06:23:18;96643.16;;;9.67;100.00
4814;BME280;15375;48.540;9.268;2023-04-25T06:25:43;96687.97;;;9.46;100.00
4814;BME280;15375;48.540;9.268;2023-04-25T06:28:09;96664.59;;;9.16;100.00
4814;BME280;15375;48.540;9.268;2023-04-25T06:30:34;96686.69;;;9.18;100.00
4814;BME280;15375;48.540;9.268;2023-04-25T06:32:59;96684.81;;;9.15;100.00
4814;BME280;15375;48.540;9.268;2023-04-25T06:35:25;96682.41;;;9.01;100.00
4814;BME280;15375;48.540;9.268;2023-04-25T06:37:50;96675.69;;;8.70;100.00
4814;BME280;15375;48.540;9.268;2023-04-25T06:40:15;96671.75;;;8.55;100.00
4814;BME280;15375;48.540;9.268;2023-04-25T06:42:42;96672.09;;;8.57;100.00
4814;BME280;15375;48.540;9.268;2023-04-25T06:45:08;96684.75;;;8.83;100.00
4814;BME280;15375;48.540;9.268;2023-04-25T06:47:33;96679.59;;;8.88;100.00
4814;BME280;15375;48.540;9.268;2023-04-25T06:49:59;96666.88;;;8.82;100.00
4814;BME280;15375;48.540;9.268;2023-04-25T06:52:24;96669.44;;;8.89;100.00
4814;BME280;15375;48.540;9.268;2023-04-25T06:54:49;96655.50;;;8.71;100.00
4814;BME280;15375;48.540;9.268;2023-04-25T06:57:15;96659.72;;;8.72;100.00
4814;BME280;15375;48.540;9.268;2023-04-25T06:59:40;96687.81;;;8.85;100.00
4814;BME280;15375;48.540;9.268;2023-04-25T07:02:05;96686.19;;;8.87;100.00
4814;BME280;15375;48.540;9.268;2023-04-25T07:04:31;96681.25;;;8.82;100.00
4814;BME280;15375;48.540;9.268;2023-04-25T07:06:56;96691.69;;;8.84;100.00
4814;BME280;15375;48.540;9.268;2023-04-25T07:09:22;96688.81;;;8.75;100.00
4814;BME280;15375;48.540;9.268;2023-04-25T07:11:47;96688.97;;;8.68;100.00
4814;BME280;15375;48.540;9.268;2023-04-25T07:14:12;96704.34;;;8.74;100.00
4814;BME280;15375;48.540;9.268;2023-04-25T07:16:38;96684.84;;;8.60;100.00
4814;BME280;15375;48.540;9.268;2023-04-25T07:19:03;96701.22;;;8.76;100.00
4814;BME280;15375;48.540;9.268;2023-04-25T07:21:29;96699.25;;;8.76;100.00
4814;BME280;15375;48.540;9.268;2023-04-25T07:23:56;96644.78;;;8.44;100.00
4814;BME280;15375;48.540;9.268;2023-04-25T07:26:21;96689.72;;;8.68;100.00
4814;BME280;15375;48.540;9.268;2023-04-25T07:28:47;96683.66;;;8.61;100.00
4814;BME280;15375;48.540;9.268;2023-04-25T07:31:16;96691.06;;;8.60;100.00
4814;BME280;15375;48.540;9.268;2023-04-25T07:33:43;96684.16;;;8.56;100.00
4814;BME280;15375;48.540;9.268;2023-04-25T07:36:08;96672.44;;;8.59;100.00
4814;BME280;15375;48.540;9.268;2023-04-25T07:38:34;96695.78;;;8.76;100.00
4814;BME280;15375;48.540;9.268;2023-04-25T07:40:59;96707.00;;;8.78;100.00
4814;BME280;15375;48.540;9.268;2023-04-25T07:43:24;96679.97;;;8.71;100.00
4814;BME280;15375;48.540;9.268;2023-04-25T07:45:51;96695.16;;;8.68;100.00
4814;BME280;15375;48.540;9.268;2023-04-25T07:48:17;96668.06;;;8.45;100.00
4814;BME280;15375;48.540;9.268;2023-04-25T07:50:43;96705.41;;;8.61;100.00
4814;BME280;15375;48.540;9.268;2023-04-25T07:53:09;96699.56;;;8.43;100.00
4814;BME280;15375;48.540;9.268;2023-04-25T07:55:34;96723.44;;;8.51;100.00
4814;BME280;15375;48.540;9.268;2023-04-25T07:58:01;96725.69;;;8.56;100.00
4814;BME280;15375;48.540;9.268;2023-04-25T08:00:28;96716.00;;;8.55;100.00
4814;BME280;15375;48.540;9.268;2023-04-25T08:02:54;96707.91;;;8.52;100.00
4814;BME280;15375;48.540;9.268;2023-04-25T08:05:19;96717.19;;;8.54;100.00
4814;BME280;15375;48.540;9.268;2023-04-25T08:07:44;96739.63;;;8.58;100.00
4814;BME280;15375;48.540;9.268;2023-04-25T08:10:10;96734.41;;;8.48;100.00
4814;BME280;15375;48.540;9.268;2023-04-25T08:12:35;96750.13;;;8.37;100.00
4814;BME280;15375;48.540;9.268;2023-04-25T08:15:01;96745.91;;;8.12;100.00
4814;BME280;15375;48.540;9.268;2023-04-25T08:17:26;96747.63;;;8.03;100.00
4814;BME280;15375;48.540;9.268;2023-04-25T08:19:52;96696.03;;;7.56;100.00
4814;BME280;15375;48.540;9.268;2023-04-25T08:22:17;96708.28;;;7.41;100.00
4814;BME280;15375;48.540;9.268;2023-04-25T08:24:43;96734.41;;;7.32;100.00
4814;BME280;15375;48.540;9.268;2023-04-25T08:27:08;96777.91;;;7.51;100.00
4814;BME280;15375;48.540;9.268;2023-04-25T08:29:34;96786.47;;;7.50;100.00
4814;BME280;15375;48.540;9.268;2023-04-25T08:31:59;96762.25;;;7.36;100.00
4814;BME280;15375;48.540;9.268;2023-04-25T08:34:25;96767.47;;;7.50;100.00
4814;BME280;15375;48.540;9.268;2023-04-25T08:36:51;96785.53;;;7.60;100.00
4814;BME280;15375;48.540;9.268;2023-04-25T08:39:16;96777.25;;;7.44;100.00
4814;BME280;15375;48.540;9.268;2023-04-25T08:41:42;96736.38;;;7.01;100.00
4814;BME280;15375;48.540;9.268;2023-04-25T08:44:10;96804.22;;;7.54;100.00
4814;BME280;15375;48.540;9.268;2023-04-25T08:46:38;96810.47;;;7.51;100.00
4814;BME280;15375;48.540;9.268;2023-04-25T08:49:05;96775.69;;;7.16;100.00
4814;BME280;15375;48.540;9.268;2023-04-25T08:51:32;96817.59;;;7.42;100.00
4814;BME280;15375;48.540;9.268;2023-04-25T08:54:08;96787.72;;;7.15;100.00
4814;BME280;15375;48.540;9.268;2023-04-25T08:56:34;96789.97;;;7.20;100.00
4814;BME280;15375;48.540;9.268;2023-04-25T08:59:01;96805.03;;;7.25;100.00
4814;BME280;15375;48.540;9.268;2023-04-25T09:01:27;96780.63;;;7.25;100.00
4814;BME280;15375;48.540;9.268;2023-04-25T09:03:53;96811.59;;;7.27;100.00
4814;BME280;15375;48.540;9.268;2023-04-25T09:06:19;96826.53;;;7.39;100.00
4814;BME280;15375;48.540;9.268;2023-04-25T09:08:45;96839.03;;;7.59;100.00
4814;BME280;15375;48.540;9.268;2023-04-25T09:11:12;96795.59;;;7.33;100.00
4814;BME280;15375;48.540;9.268;2023-04-25T09:13:38;96831.22;;;7.65;100.00
4814;BME280;15375;48.540;9.268;2023-04-25T09:16:03;96818.84;;;7.60;100.00
4814;BME280;15375;48.540;9.268;2023-04-25T09:18:34;96849.13;;;7.86;100.00
4814;BME280;15375;48.540;9.268;2023-04-25T09:21:10;96858.38;;;7.88;100.00
4814;BME280;15375;48.540;9.268;2023-04-25T09:23:45;96864.75;;;8.05;100.00
4814;BME280;15375;48.540;9.268;2023-04-25T09:26:14;96864.19;;;8.13;100.00
4814;BME280;15375;48.540;9.268;2023-04-25T09:28:39;96869.94;;;8.19;100.00
4814;BME280;15375;48.540;9.268;2023-04-25T09:31:05;96848.34;;;8.12;100.00
4814;BME280;15375;48.540;9.268;2023-04-25T09:33:32;96873.72;;;8.02;100.00
4814;BME280;15375;48.540;9.268;2023-04-25T09:38:30;96882.81;;;7.88;100.00
4814;BME280;15375;48.540;9.268;2023-04-25T09:40:56;96891.13;;;8.04;100.00
4814;BME280;15375;48.540;9.268;2023-04-25T09:43:22;96894.78;;;7.67;100.00
4814;BME280;15375;48.540;9.268;2023-04-25T09:45:49;96865.75;;;7.61;100.00
4814;BME280;15375;48.540;9.268;2023-04-25T09:48:24;96889.03;;;7.89;100.00
4814;BME280;15375;48.540;9.268;2023-04-25T09:53:36;96893.53;;;7.99;100.00
4814;BME280;15375;48.540;9.268;2023-04-25T09:56:07;96895.66;;;7.88;100.00
4814;BME280;15375;48.540;9.268;2023-04-25T09:58:33;96902.22;;;7.90;100.00
4814;BME280;15375;48.540;9.268;2023-04-25T10:01:07;96866.28;;;7.52;100.00
4814;BME280;15375;48.540;9.268;2023-04-25T10:03:37;96887.16;;;7.55;100.00
4814;BME280;15375;48.540;9.268;2023-04-25T10:06:15;96909.31;;;7.81;100.00
4814;BME280;15375;48.540;9.268;2023-04-25T10:08:43;96903.94;;;7.77;100.00
4814;BME280;15375;48.540;9.268;2023-04-25T10:11:09;96886.41;;;7.55;100.00
4814;BME280;15375;48.540;9.268;2023-04-25T10:13:35;96894.94;;;7.23;100.00
4814;BME280;15375;48.540;9.268;2023-04-25T10:16:03;96906.22;;;7.18;100.00
4814;BME280;15375;48.540;9.268;2023-04-25T10:18:29;96923.94;;;7.30;100.00
4814;BME280;15375;48.540;9.268;2023-04-25T10:20:57;96908.22;;;7.14;100.00
4814;BME280;15375;48.540;9.268;2023-04-25T10:23:23;96913.50;;;6.91;100.00
4814;BME280;15375;48.540;9.268;2023-04-25T10:25:50;96899.00;;;6.67;100.00
4814;BME280;15375;48.540;9.268;2023-04-25T10:28:16;96923.66;;;6.83;100.00
4814;BME280;15375;48.540;9.268;2023-04-25T10:33:40;96928.59;;;6.92;100.00
4814;BME280;15375;48.540;9.268;2023-04-25T10:36:09;96919.34;;;6.89;100.00
4814;BME280;15375;48.540;9.268;2023-04-25T10:38:36;96923.22;;;6.88;100.00
4814;BME280;15375;48.540;9.268;2023-04-25T10:41:07;96934.72;;;6.99;100.00
4814;BME280;15375;48.540;9.268;2023-04-25T10:43:41;96952.13;;;7.02;100.00
4814;BME280;15375;48.540;9.268;2023-04-25T10:46:18;96953.28;;;7.01;100.00
4814;BME280;15375;48.540;9.268;2023-04-25T10:49:04;96947.34;;;6.72;100.00
4814;BME280;15375;48.540;9.268;2023-04-25T10:51:33;96955.63;;;6.55;100.00
4814;BME280;15375;48.540;9.268;2023-04-25T10:54:04;96966.75;;;6.71;100.00
4814;BME280;15375;48.540;9.268;2023-04-25T10:56:41;96953.31;;;6.57;100.00
4814;BME280;15375;48.540;9.268;2023-04-25T10:59:15;96978.78;;;6.66;100.00
4814;BME280;15375;48.540;9.268;2023-04-25T11:01:42;96967.97;;;6.63;100.00
4814;BME280;15375;48.540;9.268;2023-04-25T11:04:29;96967.09;;;6.73;100.00
4814;BME280;15375;48.540;9.268;2023-04-25T11:07:06;96955.63;;;6.58;100.00
4814;BME280;15375;48.540;9.268;2023-04-25T11:09:34;96998.75;;;6.86;100.00
4814;BME280;15375;48.540;9.268;2023-04-25T11:12:00;96985.72;;;6.67;100.00
4814;BME280;15375;48.540;9.268;2023-04-25T11:14:26;96975.22;;;6.25;100.00
4814;BME280;15375;48.540;9.268;2023-04-25T11:16:56;96998.97;;;6.58;100.00
4814;BME280;15375;48.540;9.268;2023-04-25T11:19:23;96916.84;;;6.17;100.00
4814;BME280;15375;48.540;9.268;2023-04-25T11:21:49;96971.91;;;6.55;100.00
4814;BME280;15375;48.540;9.268;2023-04-25T11:24:16;96978.41;;;6.64;100.00
4814;BME280;15375;48.540;9.268;2023-04-25T11:26:42;97014.97;;;6.90;100.00
4814;BME280;15375;48.540;9.268;2023-04-25T11:29:08;96967.09;;;6.73;100.00
4814;BME280;15375;48.540;9.268;2023-04-25T11:31:33;97017.84;;;7.17;100.00
4814;BME280;15375;48.540;9.268;2023-04-25T11:33:59;96987.97;;;6.79;100.00
4814;BME280;15375;48.540;9.268;2023-04-25T11:36:26;97017.53;;;6.60;100.00
4814;BME280;15375;48.540;9.268;2023-04-25T11:38:53;97019.44;;;6.66;100.00
4814;BME280;15375;48.540;9.268;2023-04-25T11:41:19;96991.28;;;6.50;100.00
4814;BME280;15375;48.540;9.268;2023-04-25T11:43:45;96995.13;;;6.52;100.00
4814;BME280;15375;48.540;9.268;2023-04-25T11:46:11;97010.38;;;6.83;100.00
4814;BME280;15375;48.540;9.268;2023-04-25T11:48:40;97020.50;;;6.79;100.00
4814;BME280;15375;48.540;9.268;2023-04-25T11:51:06;97021.59;;;6.85;100.00
4814;BME280;15375;48.540;9.268;2023-04-25T11:53:32;97025.00;;;6.96;100.00
4814;BME280;15375;48.540;9.268;2023-04-25T11:55:57;96983.56;;;6.52;100.00
4814;BME280;15375;48.540;9.268;2023-04-25T11:58:23;97004.66;;;6.74;100.00
4814;BME280;15375;48.540;9.268;2023-04-25T12:00:48;96995.25;;;6.89;100.00
4814;BME280;15375;48.540;9.268;2023-04-25T12:03:14;96979.50;;;6.74;100.00
4814;BME280;15375;48.540;9.268;2023-04-25T12:05:39;97005.94;;;7.03;100.00
4814;BME280;15375;48.540;9.268;2023-04-25T12:08:12;97029.53;;;7.47;100.00
4814;BME280;15375;48.540;9.268;2023-04-25T12:10:40;97010.22;;;7.04;100.00
4814;BME280;15375;48.540;9.268;2023-04-25T12:13:22;97031.69;;;7.26;100.00
4814;BME280;15375;48.540;9.268;2023-04-25T12:15:48;97028.44;;;7.00;100.00
4814;BME280;15375;48.540;9.268;2023-04-25T12:18:14;97038.13;;;6.98;100.00
4814;BME280;15375;48.540;9.268;2023-04-25T12:20:39;97025.16;;;6.79;100.00
4814;BME280;15375;48.540;9.268;2023-04-25T12:23:08;97035.03;;;6.99;100.00
4814;BME280;15375;48.540;9.268;2023-04-25T12:25:44;97034.84;;;6.76;100.00
4814;BME280;15375;48.540;9.268;2023-04-25T12:28:15;97046.47;;;6.77;100.00
4814;BME280;15375;48.540;9.268;2023-04-25T12:31:01;97042.25;;;6.69;100.00
4814;BME280;15375;48.540;9.268;2023-04-25T12:33:34;96986.19;;;6.04;100.00
4814;BME280;15375;48.540;9.268;2023-04-25T12:36:01;97031.53;;;6.51;100.00
4814;BME280;15375;48.540;9.268;2023-04-25T12:38:42;96952.03;;;6.20;100.00
4814;BME280;15375;48.540;9.268;2023-04-25T12:41:08;97030.16;;;6.80;100.00
4814;BME280;15375;48.540;9.268;2023-04-25T12:43:33;97043.13;;;7.03;100.00
4814;BME280;15375;48.540;9.268;2023-04-25T12:45:59;97052.72;;;7.15;100.00
4814;BME280;15375;48.540;9.268;2023-04-25T12:48:24;97065.81;;;7.60;100.00
4814;BME280;15375;48.540;9.268;2023-04-25T12:50:51;97041.06;;;7.18;100.00
4814;BME280;15375;48.540;9.268;2023-04-25T12:53:18;97027.22;;;7.05;100.00
4814;BME280;15375;48.540;9.268;2023-04-25T12:55:45;97036.84;;;6.65;100.00
4814;BME280;15375;48.540;9.268;2023-04-25T12:58:18;97068.94;;;7.22;100.00
4814;BME280;15375;48.540;9.268;2023-04-25T13:00:44;96992.31;;;7.11;100.00
4814;BME280;15375;48.540;9.268;2023-04-25T13:03:10;97065.06;;;7.94;100.00
4814;BME280;15375;48.540;9.268;2023-04-25T13:05:36;97054.16;;;7.97;100.00
4814;BME280;15375;48.540;9.268;2023-04-25T13:08:02;97051.25;;;7.81;100.00
4814;BME280;15375;48.540;9.268;2023-04-25T13:10:28;97049.44;;;7.71;100.00
4814;BME280;15375;48.540;9.268;2023-04-25T13:12:53;97055.72;;;7.24;100.00
4814;BME280;15375;48.540;9.268;2023-04-25T13:15:19;97058.09;;;7.22;100.00